sensor_id;sensor_type;location;lat;lon;timestamp;P1;durP1;ratioP1;P2;durP2;ratioP2
3589;SDS011;1809;48.470;9.226;2022-07-29T00:01:17;14.43;;;11.53;;
3589;SDS011;1809;48.470;9.226;2022-07-29T00:03:42;14.90;;;12.40;;
3589;SDS011;1809;48.470;9.226;2022-07-29T00:06:07;13.90;;;11.90;;
3589;SDS011;1809;48.470;9.226;2022-07-29T00:08:33;13.20;;;12.00;;
3589;SDS011;1809;48.470;9.226;2022-07-29T00:10:58;13.83;;;11.33;;
3589;SDS011;1809;48.470;9.226;2022-07-29T00:13:24;12.10;;;10.90;;
3589;SDS011;1809;48.470;9.226;2022-07-29T00:15:49;12.60;;;11.30;;
3589;SDS011;1809;48.470;9.226;2022-07-29T00:18:14;11.23;;;10.23;;
3589;SDS011;1809;48.470;9.226;2022-07-29T00:20:40;14.20;;;11.77;;
3589;SDS011;1809;48.470;9.226;2022-07-29T00:23:05;10.60;;;9.53;;
3589;SDS011;1809;48.470;9.226;2022-07-29T00:25:30;10.80;;;9.70;;
3589;SDS011;1809;48.470;9.226;2022-07-29T00:27:56;11.57;;;10.33;;
3589;SDS011;1809;48.470;9.226;2022-07-29T00:30:21;12.00;;;9.30;;
3589;SDS011;1809;48.470;9.226;2022-07-29T00:32:47;13.63;;;9.20;;
3589;SDS011;1809;48.470;9.226;2022-07-29T00:35:12;10.63;;;9.53;;
3589;SDS011;1809;48.470;9.226;2022-07-29T00:37:56;13.00;;;9.40;;
3589;SDS011;1809;48.470;9.226;2022-07-29T00:40:21;10.40;;;9.40;;
3589;SDS011;1809;48.470;9.226;2022-07-29T00:42:47;10.67;;;9.60;;
3589;SDS011;1809;48.470;9.226;2022-07-29T00:45:15;10.33;;;9.33;;
3589;SDS011;1809;48.470;9.226;2022-07-29T00:47:41;11.77;;;9.63;;
3589;SDS011;1809;48.470;9.226;2022-07-29T00:50:07;9.20;;;8.50;;
3589;SDS011;1809;48.470;9.226;2022-07-29T00:52:35;11.20;;;9.40;;
3589;SDS011;1809;48.470;9.226;2022-07-29T00:55:03;10.60;;;9.60;;
3589;SDS011;1809;48.470;9.226;2022-07-29T00:57:32;10.60;;;9.60;;
3589;SDS011;1809;48.470;9.226;2022-07-29T00:59:58;13.23;;;9.30;;
3589;SDS011;1809;48.470;9.226;2022-07-29T01:02:23;11.07;;;9.60;;
3589;SDS011;1809;48.470;9.226;2022-07-29T01:04:49;10.30;;;9.03;;
3589;SDS011;1809;48.470;9.226;2022-07-29T01:07:15;9.70;;;8.90;;
3589;SDS011;1809;48.470;9.226;2022-07-29T01:09:42;11.57;;;10.50;;
3589;SDS011;1809;48.470;9.226;2022-07-29T01:12:08;12.40;;;11.10;;
3589;SDS011;1809;48.470;9.226;2022-07-29T01:14:33;11.27;;;10.20;;
3589;SDS011;1809;48.470;9.226;2022-07-29T01:17:02;11.73;;;10.53;;
3589;SDS011;1809;48.470;9.226;2022-07-29T01:22:18;11.43;;;10.23;;
3589;SDS011;1809;48.470;9.226;2022-07-29T01:27:45;13.43;;;11.50;;
3589;SDS011;1809;48.470;9.226;2022-07-29T01:30:25;11.73;;;10.70;;
3589;SDS011;1809;48.470;9.226;2022-07-29T01:32:54;11.03;;;10.03;;
3589;SDS011;1809;48.470;9.226;2022-07-29T01:35:33;11.17;;;10.10;;
3589;SDS011;1809;48.470;9.226;2022-07-29T01:38:13;11.13;;;10.03;;
3589;SDS011;1809;48.470;9.226;2022-07-29T01:40:46;10.23;;;9.27;;
3589;SDS011;1809;48.470;9.226;2022-07-29T01:43:19;13.97;;;10.43;;
3589;SDS011;1809;48.470;9.226;2022-07-29T01:45:53;11.40;;;10.40;;
3589;SDS011;1809;48.470;9.226;2022-07-29T01:48:31;11.10;;;10.00;;
3589;SDS011;1809;48.470;9.226;2022-07-29T01:51:20;13.13;;;10.17;;
3589;SDS011;1809;48.470;9.226;2022-07-29T01:56:51;11.40;;;10.23;;
3589;SDS011;1809;48.470;9.226;2022-07-29T01:59:20;13.70;;;12.03;;
3589;SDS011;1809;48.470;9.226;2022-07-29T02:01:46;12.53;;;11.33;;
3589;SDS011;1809;48.470;9.226;2022-07-29T02:04:15;11.23;;;10.13;;
3589;SDS011;1809;48.470;9.226;2022-07-29T02:06:43;12.50;;;11.20;;
3589;SDS011;1809;48.470;9.226;2022-07-29T02:09:11;11.60;;;10.60;;
3589;SDS011;1809;48.470;9.226;2022-07-29T02:11:40;15.93;;;11.60;;
3589;SDS011;1809;48.470;9.226;2022-07-29T02:14:18;17.60;;;11.70;;
3589;SDS011;1809;48.470;9.226;2022-07-29T02:16:45;13.03;;;11.30;;
3589;SDS011;1809;48.470;9.226;2022-07-29T02:19:14;13.40;;;11.93;;
3589;SDS011;1809;48.470;9.226;2022-07-29T02:21:43;13.07;;;11.87;;
3589;SDS011;1809;48.470;9.226;2022-07-29T02:24:13;13.57;;;11.80;;
3589;SDS011;1809;48.470;9.226;2022-07-29T02:26:41;13.30;;;12.00;;
3589;SDS011;1809;48.470;9.226;2022-07-29T02:29:09;14.97;;;11.80;;
3589;SDS011;1809;48.470;9.226;2022-07-29T02:31:39;14.27;;;12.97;;
3589;SDS011;1809;48.470;9.226;2022-07-29T02:34:08;14.20;;;12.60;;
3589;SDS011;1809;48.470;9.226;2022-07-29T02:36:36;14.40;;;12.07;;
3589;SDS011;1809;48.470;9.226;2022-07-29T02:39:04;17.60;;;13.37;;
3589;SDS011;1809;48.470;9.226;2022-07-29T02:41:35;15.00;;;13.17;;
3589;SDS011;1809;48.470;9.226;2022-07-29T02:44:10;14.00;;;12.10;;
3589;SDS011;1809;48.470;9.226;2022-07-29T02:46:46;14.17;;;12.33;;
3589;SDS011;1809;48.470;9.226;2022-07-29T02:49:23;15.13;;;13.10;;
3589;SDS011;1809;48.470;9.226;2022-07-29T02:52:08;19.80;;;13.03;;
3589;SDS011;1809;48.470;9.226;2022-07-29T02:57:46;15.60;;;12.10;;
3589;SDS011;1809;48.470;9.226;2022-07-29T03:00:17;17.37;;;13.20;;
3589;SDS011;1809;48.470;9.226;2022-07-29T03:02:45;14.13;;;11.50;;
3589;SDS011;1809;48.470;9.226;2022-07-29T03:05:18;13.97;;;12.53;;
3589;SDS011;1809;48.470;9.226;2022-07-29T03:08:09;16.83;;;11.87;;
3589;SDS011;1809;48.470;9.226;2022-07-29T03:10:39;13.20;;;10.50;;
3589;SDS011;1809;48.470;9.226;2022-07-29T03:13:09;13.07;;;10.50;;
3589;SDS011;1809;48.470;9.226;2022-07-29T03:15:41;11.63;;;10.53;;
3589;SDS011;1809;48.470;9.226;2022-07-29T03:18:11;11.50;;;10.40;;
3589;SDS011;1809;48.470;9.226;2022-07-29T03:20:37;9.77;;;8.87;;
3589;SDS011;1809;48.470;9.226;2022-07-29T03:23:04;10.23;;;9.17;;
3589;SDS011;1809;48.470;9.226;2022-07-29T03:25:30;9.90;;;7.00;;
3589;SDS011;1809;48.470;9.226;2022-07-29T03:27:56;9.40;;;7.10;;
3589;SDS011;1809;48.470;9.226;2022-07-29T03:30:24;6.20;;;5.70;;
3589;SDS011;1809;48.470;9.226;2022-07-29T03:32:50;5.50;;;5.20;;
3589;SDS011;1809;48.470;9.226;2022-07-29T03:35:16;6.80;;;6.00;;
3589;SDS011;1809;48.470;9.226;2022-07-29T03:37:48;6.93;;;6.33;;
3589;SDS011;1809;48.470;9.226;2022-07-29T03:40:18;6.93;;;6.30;;
3589;SDS011;1809;48.470;9.226;2022-07-29T03:42:51;6.70;;;6.10;;
3589;SDS011;1809;48.470;9.226;2022-07-29T03:45:20;10.90;;;7.10;;
3589;SDS011;1809;48.470;9.226;2022-07-29T03:47:52;7.17;;;6.67;;
3589;SDS011;1809;48.470;9.226;2022-07-29T03:50:22;8.03;;;7.33;;
3589;SDS011;1809;48.470;9.226;2022-07-29T03:52:48;8.40;;;7.10;;
3589;SDS011;1809;48.470;9.226;2022-07-29T03:55:14;11.00;;;8.00;;
3589;SDS011;1809;48.470;9.226;2022-07-29T03:57:41;7.23;;;6.63;;
3589;SDS011;1809;48.470;9.226;2022-07-29T04:00:16;9.13;;;7.33;;
3589;SDS011;1809;48.470;9.226;2022-07-29T04:02:43;12.33;;;7.63;;
3589;SDS011;1809;48.470;9.226;2022-07-29T04:05:14;8.33;;;7.23;;
3589;SDS011;1809;48.470;9.226;2022-07-29T04:07:43;8.20;;;6.90;;
3589;SDS011;1809;48.470;9.226;2022-07-29T04:10:15;8.33;;;7.63;;
3589;SDS011;1809;48.470;9.226;2022-07-29T04:12:42;9.60;;;7.03;;
3589;SDS011;1809;48.470;9.226;2022-07-29T04:15:07;7.60;;;7.00;;
3589;SDS011;1809;48.470;9.226;2022-07-29T04:17:33;10.50;;;7.23;;
3589;SDS011;1809;48.470;9.226;2022-07-29T04:19:58;12.93;;;6.80;;
3589;SDS011;1809;48.470;9.226;2022-07-29T04:22:24;7.00;;;6.40;;
3589;SDS011;1809;48.470;9.226;2022-07-29T04:24:49;10.80;;;6.67;;
3589;SDS011;1809;48.470;9.226;2022-07-29T04:27:15;6.20;;;5.70;;
3589;SDS011;1809;48.470;9.226;2022-07-29T04:29:40;5.93;;;5.53;;
3589;SDS011;1809;48.470;9.226;2022-07-29T04:32:06;6.17;;;5.67;;
3589;SDS011;1809;48.470;9.226;2022-07-29T04:34:31;9.70;;;5.90;;
3589;SDS011;1809;48.470;9.226;2022-07-29T04:36:57;5.47;;;5.17;;
3589;SDS011;1809;48.470;9.226;2022-07-29T04:39:22;6.10;;;5.60;;
3589;SDS011;1809;48.470;9.226;2022-07-29T04:41:48;5.07;;;4.77;;
3589;SDS011;1809;48.470;9.226;2022-07-29T04:44:14;5.70;;;5.30;;
3589;SDS011;1809;48.470;9.226;2022-07-29T04:46:39;4.83;;;4.53;;
3589;SDS011;1809;48.470;9.226;2022-07-29T04:49:04;6.60;;;5.07;;
3589;SDS011;1809;48.470;9.226;2022-07-29T04:51:30;5.03;;;4.63;;
3589;SDS011;1809;48.470;9.226;2022-07-29T04:53:56;5.63;;;5.13;;
3589;SDS011;1809;48.470;9.226;2022-07-29T04:56:21;5.40;;;4.90;;
3589;SDS011;1809;48.470;9.226;2022-07-29T04:58:47;5.00;;;4.63;;
3589;SDS011;1809;48.470;9.226;2022-07-29T05:01:12;6.90;;;4.87;;
3589;SDS011;1809;48.470;9.226;2022-07-29T05:03:39;6.87;;;4.83;;
3589;SDS011;1809;48.470;9.226;2022-07-29T05:06:04;6.03;;;5.20;;
3589;SDS011;1809;48.470;9.226;2022-07-29T05:08:30;7.73;;;5.23;;
3589;SDS011;1809;48.470;9.226;2022-07-29T05:10:55;5.50;;;5.10;;
3589;SDS011;1809;48.470;9.226;2022-07-29T05:13:21;5.60;;;5.13;;
3589;SDS011;1809;48.470;9.226;2022-07-29T05:15:46;5.30;;;4.80;;
3589;SDS011;1809;48.470;9.226;2022-07-29T05:18:11;6.33;;;5.63;;
3589;SDS011;1809;48.470;9.226;2022-07-29T05:20:37;5.13;;;4.80;;
3589;SDS011;1809;48.470;9.226;2022-07-29T05:23:02;4.90;;;4.50;;
3589;SDS011;1809;48.470;9.226;2022-07-29T05:25:28;5.70;;;5.30;;
3589;SDS011;1809;48.470;9.226;2022-07-29T05:27:55;5.60;;;5.20;;
3589;SDS011;1809;48.470;9.226;2022-07-29T05:30:21;7.23;;;5.60;;
3589;SDS011;1809;48.470;9.226;2022-07-29T05:32:46;10.03;;;5.27;;
3589;SDS011;1809;48.470;9.226;2022-07-29T05:35:12;6.33;;;5.83;;
3589;SDS011;1809;48.470;9.226;2022-07-29T05:37:38;10.27;;;5.90;;
3589;SDS011;1809;48.470;9.226;2022-07-29T05:40:03;5.43;;;4.80;;
3589;SDS011;1809;48.470;9.226;2022-07-29T05:42:29;11.03;;;5.60;;
3589;SDS011;1809;48.470;9.226;2022-07-29T05:44:55;6.97;;;5.43;;
3589;SDS011;1809;48.470;9.226;2022-07-29T05:47:21;6.77;;;6.23;;
3589;SDS011;1809;48.470;9.226;2022-07-29T05:49:47;6.77;;;6.27;;
3589;SDS011;1809;48.470;9.226;2022-07-29T05:52:12;6.30;;;5.70;;
3589;SDS011;1809;48.470;9.226;2022-07-29T05:54:38;6.70;;;6.10;;
3589;SDS011;1809;48.470;9.226;2022-07-29T05:57:03;11.07;;;6.27;;
3589;SDS011;1809;48.470;9.226;2022-07-29T05:59:30;7.30;;;6.60;;
3589;SDS011;1809;48.470;9.226;2022-07-29T06:01:55;7.30;;;6.70;;
3589;SDS011;1809;48.470;9.226;2022-07-29T06:04:22;7.23;;;6.53;;
3589;SDS011;1809;48.470;9.226;2022-07-29T06:06:50;8.63;;;7.37;;
3589;SDS011;1809;48.470;9.226;2022-07-29T06:09:16;8.13;;;7.33;;
3589;SDS011;1809;48.470;9.226;2022-07-29T06:11:42;18.63;;;7.67;;
3589;SDS011;1809;48.470;9.226;2022-07-29T06:14:07;7.10;;;6.60;;
3589;SDS011;1809;48.470;9.226;2022-07-29T06:16:33;7.87;;;6.77;;
3589;SDS011;1809;48.470;9.226;2022-07-29T06:19:02;9.87;;;6.90;;
3589;SDS011;1809;48.470;9.226;2022-07-29T06:21:29;6.73;;;6.00;;
3589;SDS011;1809;48.470;9.226;2022-07-29T06:23:55;6.00;;;5.50;;
3589;SDS011;1809;48.470;9.226;2022-07-29T06:26:23;5.80;;;5.30;;
3589;SDS011;1809;48.470;9.226;2022-07-29T06:29:04;9.40;;;5.40;;
3589;SDS011;1809;48.470;9.226;2022-07-29T06:31:30;7.60;;;3.93;;
3589;SDS011;1809;48.470;9.226;2022-07-29T06:33:55;4.37;;;4.07;;
3589;SDS011;1809;48.470;9.226;2022-07-29T06:36:21;4.47;;;4.27;;
3589;SDS011;1809;48.470;9.226;2022-07-29T06:38:47;6.40;;;5.63;;
3589;SDS011;1809;48.470;9.226;2022-07-29T06:41:13;8.77;;;5.23;;
3589;SDS011;1809;48.470;9.226;2022-07-29T06:43:41;4.43;;;4.13;;
3589;SDS011;1809;48.470;9.226;2022-07-29T06:46:11;4.03;;;3.83;;
3589;SDS011;1809;48.470;9.226;2022-07-29T06:48:39;3.93;;;3.73;;
3589;SDS011;1809;48.470;9.226;2022-07-29T06:51:07;4.20;;;3.93;;
3589;SDS011;1809;48.470;9.226;2022-07-29T06:53:34;3.93;;;3.63;;
3589;SDS011;1809;48.470;9.226;2022-07-29T06:56:09;4.43;;;4.20;;
3589;SDS011;1809;48.470;9.226;2022-07-29T06:58:35;4.97;;;4.10;;
3589;SDS011;1809;48.470;9.226;2022-07-29T07:01:02;3.50;;;3.40;;
3589;SDS011;1809;48.470;9.226;2022-07-29T07:03:29;4.67;;;4.30;;
3589;SDS011;1809;48.470;9.226;2022-07-29T07:05:56;6.30;;;3.60;;
3589;SDS011;1809;48.470;9.226;2022-07-29T07:08:22;4.63;;;3.70;;
3589;SDS011;1809;48.470;9.226;2022-07-29T07:10:49;4.33;;;3.93;;
3589;SDS011;1809;48.470;9.226;2022-07-29T07:13:15;3.63;;;3.40;;
3589;SDS011;1809;48.470;9.226;2022-07-29T07:15:42;4.40;;;4.10;;
3589;SDS011;1809;48.470;9.226;2022-07-29T07:18:09;5.60;;;3.20;;
3589;SDS011;1809;48.470;9.226;2022-07-29T07:20:35;5.33;;;3.80;;
3589;SDS011;1809;48.470;9.226;2022-07-29T07:23:00;4.37;;;4.10;;
3589;SDS011;1809;48.470;9.226;2022-07-29T07:25:26;3.80;;;3.70;;
3589;SDS011;1809;48.470;9.226;2022-07-29T07:27:52;4.83;;;3.73;;
3589;SDS011;1809;48.470;9.226;2022-07-29T07:30:17;4.77;;;4.37;;
3589;SDS011;1809;48.470;9.226;2022-07-29T07:32:43;3.83;;;3.63;;
3589;SDS011;1809;48.470;9.226;2022-07-29T07:35:09;3.50;;;3.40;;
3589;SDS011;1809;48.470;9.226;2022-07-29T07:37:36;4.27;;;3.97;;
3589;SDS011;1809;48.470;9.226;2022-07-29T07:40:02;7.23;;;4.30;;
3589;SDS011;1809;48.470;9.226;2022-07-29T07:42:29;3.67;;;3.57;;
3589;SDS011;1809;48.470;9.226;2022-07-29T07:44:55;7.53;;;3.70;;
3589;SDS011;1809;48.470;9.226;2022-07-29T07:47:21;2.90;;;2.70;;
3589;SDS011;1809;48.470;9.226;2022-07-29T07:49:51;6.53;;;4.03;;
3589;SDS011;1809;48.470;9.226;2022-07-29T07:52:17;3.97;;;3.63;;
3589;SDS011;1809;48.470;9.226;2022-07-29T07:54:44;4.70;;;4.30;;
3589;SDS011;1809;48.470;9.226;2022-07-29T07:57:10;7.80;;;3.93;;
3589;SDS011;1809;48.470;9.226;2022-07-29T07:59:36;5.03;;;4.73;;
3589;SDS011;1809;48.470;9.226;2022-07-29T08:02:02;4.47;;;4.07;;
3589;SDS011;1809;48.470;9.226;2022-07-29T08:04:28;4.30;;;4.03;;
3589;SDS011;1809;48.470;9.226;2022-07-29T08:06:53;4.47;;;4.13;;
3589;SDS011;1809;48.470;9.226;2022-07-29T08:09:21;7.30;;;4.23;;
3589;SDS011;1809;48.470;9.226;2022-07-29T08:11:48;5.80;;;3.70;;
3589;SDS011;1809;48.470;9.226;2022-07-29T08:14:17;4.60;;;4.30;;
3589;SDS011;1809;48.470;9.226;2022-07-29T08:16:43;5.13;;;4.53;;
3589;SDS011;1809;48.470;9.226;2022-07-29T08:19:09;4.83;;;4.40;;
3589;SDS011;1809;48.470;9.226;2022-07-29T08:21:35;6.60;;;4.70;;
3589;SDS011;1809;48.470;9.226;2022-07-29T08:24:01;5.40;;;5.00;;
3589;SDS011;1809;48.470;9.226;2022-07-29T08:26:48;4.80;;;4.33;;
3589;SDS011;1809;48.470;9.226;2022-07-29T08:29:14;4.90;;;4.60;;
3589;SDS011;1809;48.470;9.226;2022-07-29T08:31:39;5.57;;;4.60;;
3589;SDS011;1809;48.470;9.226;2022-07-29T08:34:05;12.60;;;10.00;;
3589;SDS011;1809;48.470;9.226;2022-07-29T08:36:34;6.50;;;4.87;;
3589;SDS011;1809;48.470;9.226;2022-07-29T08:39:00;6.47;;;5.97;;
3589;SDS011;1809;48.470;9.226;2022-07-29T08:41:26;5.70;;;4.73;;
3589;SDS011;1809;48.470;9.226;2022-07-29T08:43:52;7.70;;;4.80;;
3589;SDS011;1809;48.470;9.226;2022-07-29T08:46:18;7.67;;;5.73;;
3589;SDS011;1809;48.470;9.226;2022-07-29T08:48:45;6.37;;;5.20;;
3589;SDS011;1809;48.470;9.226;2022-07-29T08:51:16;5.60;;;5.20;;
3589;SDS011;1809;48.470;9.226;2022-07-29T08:53:44;4.37;;;4.13;;
3589;SDS011;1809;48.470;9.226;2022-07-29T08:56:14;5.73;;;4.63;;
3589;SDS011;1809;48.470;9.226;2022-07-29T08:58:44;4.83;;;4.30;;
3589;SDS011;1809;48.470;9.226;2022-07-29T09:01:12;4.80;;;4.50;;
3589;SDS011;1809;48.470;9.226;2022-07-29T09:03:41;10.30;;;4.60;;
3589;SDS011;1809;48.470;9.226;2022-07-29T09:06:09;5.73;;;4.27;;
3589;SDS011;1809;48.470;9.226;2022-07-29T09:08:39;5.20;;;4.90;;
3589;SDS011;1809;48.470;9.226;2022-07-29T09:11:05;5.60;;;4.30;;
3589;SDS011;1809;48.470;9.226;2022-07-29T09:13:32;4.27;;;4.07;;
3589;SDS011;1809;48.470;9.226;2022-07-29T09:15:58;5.00;;;4.70;;
3589;SDS011;1809;48.470;9.226;2022-07-29T09:20:59;5.57;;;5.17;;
3589;SDS011;1809;48.470;9.226;2022-07-29T09:26:42;4.87;;;4.33;;
3589;SDS011;1809;48.470;9.226;2022-07-29T09:29:16;5.37;;;4.97;;
3589;SDS011;1809;48.470;9.226;2022-07-29T09:31:46;5.33;;;5.00;;
3589;SDS011;1809;48.470;9.226;2022-07-29T09:34:14;5.63;;;5.13;;
3589;SDS011;1809;48.470;9.226;2022-07-29T09:36:42;5.17;;;4.87;;
3589;SDS011;1809;48.470;9.226;2022-07-29T09:39:09;4.90;;;4.50;;
3589;SDS011;1809;48.470;9.226;2022-07-29T09:41:45;4.60;;;4.23;;
3589;SDS011;1809;48.470;9.226;2022-07-29T09:44:20;5.20;;;4.80;;
3589;SDS011;1809;48.470;9.226;2022-07-29T09:49:31;5.10;;;4.60;;
3589;SDS011;1809;48.470;9.226;2022-07-29T09:51:59;6.70;;;6.10;;
3589;SDS011;1809;48.470;9.226;2022-07-29T09:54:34;6.60;;;5.73;;
3589;SDS011;1809;48.470;9.226;2022-07-29T09:57:04;6.03;;;4.70;;
3589;SDS011;1809;48.470;9.226;2022-07-29T09:59:32;6.80;;;5.70;;
3589;SDS011;1809;48.470;9.226;2022-07-29T10:01:58;6.00;;;5.33;;
3589;SDS011;1809;48.470;9.226;2022-07-29T10:04:36;8.23;;;5.40;;
3589;SDS011;1809;48.470;9.226;2022-07-29T10:07:05;11.37;;;5.30;;
3589;SDS011;1809;48.470;9.226;2022-07-29T10:09:32;7.80;;;5.67;;
3589;SDS011;1809;48.470;9.226;2022-07-29T10:12:05;6.00;;;5.63;;
3589;SDS011;1809;48.470;9.226;2022-07-29T10:14:34;5.83;;;5.43;;
3589;SDS011;1809;48.470;9.226;2022-07-29T10:17:01;8.10;;;5.43;;
3589;SDS011;1809;48.470;9.226;2022-07-29T10:19:31;6.00;;;5.40;;
3589;SDS011;1809;48.470;9.226;2022-07-29T10:22:02;5.87;;;5.47;;
3589;SDS011;1809;48.470;9.226;2022-07-29T10:24:30;8.03;;;5.67;;
3589;SDS011;1809;48.470;9.226;2022-07-29T10:27:01;6.10;;;5.70;;
3589;SDS011;1809;48.470;9.226;2022-07-29T10:29:29;5.60;;;5.30;;
3589;SDS011;1809;48.470;9.226;2022-07-29T10:43:24;10.03;;;6.50;;
3589;SDS011;1809;48.470;9.226;2022-07-29T10:45:57;9.73;;;5.23;;
3589;SDS011;1809;48.470;9.226;2022-07-29T10:48:24;5.87;;;5.57;;
3589;SDS011;1809;48.470;9.226;2022-07-29T10:51:00;5.40;;;5.00;;
3589;SDS011;1809;48.470;9.226;2022-07-29T10:53:48;5.53;;;5.23;;
3589;SDS011;1809;48.470;9.226;2022-07-29T11:01:46;5.00;;;4.70;;
3589;SDS011;1809;48.470;9.226;2022-07-29T11:04:14;4.60;;;4.40;;
3589;SDS011;1809;48.470;9.226;2022-07-29T11:09:28;4.77;;;4.47;;
3589;SDS011;1809;48.470;9.226;2022-07-29T11:11:55;4.40;;;4.10;;
3589;SDS011;1809;48.470;9.226;2022-07-29T11:17:21;5.83;;;4.50;;
3589;SDS011;1809;48.470;9.226;2022-07-29T11:19:46;5.47;;;5.03;;
3589;SDS011;1809;48.470;9.226;2022-07-29T11:22:30;7.20;;;4.77;;
3589;SDS011;1809;48.470;9.226;2022-07-29T11:25:12;4.83;;;4.50;;
3589;SDS011;1809;48.470;9.226;2022-07-29T11:27:39;10.30;;;4.50;;
3589;SDS011;1809;48.470;9.226;2022-07-29T11:30:05;5.40;;;4.90;;
3589;SDS011;1809;48.470;9.226;2022-07-29T11:32:38;8.17;;;5.30;;
3589;SDS011;1809;48.470;9.226;2022-07-29T11:37:38;9.33;;;5.07;;
3589;SDS011;1809;48.470;9.226;2022-07-29T11:47:26;5.40;;;5.10;;
3589;SDS011;1809;48.470;9.226;2022-07-29T11:49:54;6.93;;;5.60;;
3589;SDS011;1809;48.470;9.226;2022-07-29T11:52:21;6.80;;;5.87;;
3589;SDS011;1809;48.470;9.226;2022-07-29T11:54:47;6.27;;;5.67;;
3589;SDS011;1809;48.470;9.226;2022-07-29T11:57:17;10.73;;;6.70;;
3589;SDS011;1809;48.470;9.226;2022-07-29T11:59:44;12.40;;;6.77;;
3589;SDS011;1809;48.470;9.226;2022-07-29T12:02:11;8.00;;;6.57;;
3589;SDS011;1809;48.470;9.226;2022-07-29T12:04:53;10.43;;;7.23;;
3589;SDS011;1809;48.470;9.226;2022-07-29T12:07:27;11.00;;;6.80;;
3589;SDS011;1809;48.470;9.226;2022-07-29T12:09:53;6.33;;;5.93;;
3589;SDS011;1809;48.470;9.226;2022-07-29T12:12:19;6.70;;;6.30;;
3589;SDS011;1809;48.470;9.226;2022-07-29T12:14:45;7.37;;;6.80;;
3589;SDS011;1809;48.470;9.226;2022-07-29T12:17:30;7.90;;;7.13;;
3589;SDS011;1809;48.470;9.226;2022-07-29T12:19:58;7.87;;;7.37;;
3589;SDS011;1809;48.470;9.226;2022-07-29T12:22:25;7.77;;;7.13;;
3589;SDS011;1809;48.470;9.226;2022-07-29T12:24:52;11.70;;;8.93;;
3589;SDS011;1809;48.470;9.226;2022-07-29T12:27:17;8.20;;;7.50;;
3589;SDS011;1809;48.470;9.226;2022-07-29T12:29:43;7.20;;;6.53;;
3589;SDS011;1809;48.470;9.226;2022-07-29T12:32:08;7.87;;;6.10;;
3589;SDS011;1809;48.470;9.226;2022-07-29T12:34:34;6.80;;;6.37;;
3589;SDS011;1809;48.470;9.226;2022-07-29T12:36:59;13.10;;;8.30;;
3589;SDS011;1809;48.470;9.226;2022-07-29T12:39:26;11.00;;;9.90;;
3589;SDS011;1809;48.470;9.226;2022-07-29T12:41:53;26.93;;;11.63;;
3589;SDS011;1809;48.470;9.226;2022-07-29T12:44:18;8.70;;;8.00;;
3589;SDS011;1809;48.470;9.226;2022-07-29T12:46:44;13.63;;;9.00;;
3589;SDS011;1809;48.470;9.226;2022-07-29T12:49:15;14.10;;;9.30;;
3589;SDS011;1809;48.470;9.226;2022-07-29T12:51:46;14.10;;;9.67;;
3589;SDS011;1809;48.470;9.226;2022-07-29T12:54:13;12.43;;;11.23;;
3589;SDS011;1809;48.470;9.226;2022-07-29T12:56:40;14.90;;;13.00;;
3589;SDS011;1809;48.470;9.226;2022-07-29T13:01:39;19.43;;;15.87;;
3589;SDS011;1809;48.470;9.226;2022-07-29T13:04:04;14.33;;;12.57;;
3589;SDS011;1809;48.470;9.226;2022-07-29T13:06:31;12.23;;;11.10;;
3589;SDS011;1809;48.470;9.226;2022-07-29T13:11:36;13.30;;;10.60;;
3589;SDS011;1809;48.470;9.226;2022-07-29T13:14:06;10.87;;;9.90;;
3589;SDS011;1809;48.470;9.226;2022-07-29T13:16:33;10.63;;;9.73;;
3589;SDS011;1809;48.470;9.226;2022-07-29T13:19:17;9.70;;;8.80;;
3589;SDS011;1809;48.470;9.226;2022-07-29T13:21:44;10.27;;;9.10;;
3589;SDS011;1809;48.470;9.226;2022-07-29T13:24:10;10.30;;;9.30;;
3589;SDS011;1809;48.470;9.226;2022-07-29T13:26:39;8.83;;;8.03;;
3589;SDS011;1809;48.470;9.226;2022-07-29T13:29:05;7.97;;;7.37;;
3589;SDS011;1809;48.470;9.226;2022-07-29T13:31:30;9.83;;;8.80;;
3589;SDS011;1809;48.470;9.226;2022-07-29T13:33:56;9.30;;;7.90;;
3589;SDS011;1809;48.470;9.226;2022-07-29T13:36:21;8.73;;;8.00;;
3589;SDS011;1809;48.470;9.226;2022-07-29T13:38:47;8.07;;;7.30;;
3589;SDS011;1809;48.470;9.226;2022-07-29T13:41:12;8.17;;;7.37;;
3589;SDS011;1809;48.470;9.226;2022-07-29T13:43:37;20.20;;;9.20;;
3589;SDS011;1809;48.470;9.226;2022-07-29T13:46:03;11.10;;;8.50;;
3589;SDS011;1809;48.470;9.226;2022-07-29T13:48:28;9.10;;;8.50;;
3589;SDS011;1809;48.470;9.226;2022-07-29T13:50:53;8.90;;;8.20;;
3589;SDS011;1809;48.470;9.226;2022-07-29T13:53:19;10.50;;;9.53;;
3589;SDS011;1809;48.470;9.226;2022-07-29T13:55:44;10.17;;;8.63;;
3589;SDS011;1809;48.470;9.226;2022-07-29T13:58:09;10.07;;;9.27;;
3589;SDS011;1809;48.470;9.226;2022-07-29T14:00:35;8.93;;;8.20;;
3589;SDS011;1809;48.470;9.226;2022-07-29T14:03:00;7.10;;;6.50;;
3589;SDS011;1809;48.470;9.226;2022-07-29T14:05:25;7.30;;;6.80;;
3589;SDS011;1809;48.470;9.226;2022-07-29T14:07:51;7.10;;;6.60;;
3589;SDS011;1809;48.470;9.226;2022-07-29T14:10:16;11.03;;;7.00;;
3589;SDS011;1809;48.470;9.226;2022-07-29T14:12:41;6.67;;;6.23;;
3589;SDS011;1809;48.470;9.226;2022-07-29T14:15:07;7.60;;;6.90;;
3589;SDS011;1809;48.470;9.226;2022-07-29T14:17:33;10.07;;;7.17;;
3589;SDS011;1809;48.470;9.226;2022-07-29T14:19:59;13.10;;;7.17;;
3589;SDS011;1809;48.470;9.226;2022-07-29T14:22:24;12.40;;;6.30;;
3589;SDS011;1809;48.470;9.226;2022-07-29T14:24:50;6.00;;;5.57;;
3589;SDS011;1809;48.470;9.226;2022-07-29T14:27:15;6.20;;;5.73;;
3589;SDS011;1809;48.470;9.226;2022-07-29T14:29:41;7.20;;;6.50;;
3589;SDS011;1809;48.470;9.226;2022-07-29T14:32:07;6.33;;;5.40;;
3589;SDS011;1809;48.470;9.226;2022-07-29T14:34:35;9.33;;;6.03;;
3589;SDS011;1809;48.470;9.226;2022-07-29T14:37:01;6.67;;;6.23;;
3589;SDS011;1809;48.470;9.226;2022-07-29T14:39:30;6.27;;;5.83;;
3589;SDS011;1809;48.470;9.226;2022-07-29T14:41:55;8.93;;;5.87;;
3589;SDS011;1809;48.470;9.226;2022-07-29T14:44:20;5.80;;;5.40;;
3589;SDS011;1809;48.470;9.226;2022-07-29T14:46:46;6.63;;;6.07;;
3589;SDS011;1809;48.470;9.226;2022-07-29T14:49:11;6.97;;;6.37;;
3589;SDS011;1809;48.470;9.226;2022-07-29T14:51:37;6.40;;;5.90;;
3589;SDS011;1809;48.470;9.226;2022-07-29T14:54:02;7.07;;;6.50;;
3589;SDS011;1809;48.470;9.226;2022-07-29T14:56:27;10.40;;;6.50;;
3589;SDS011;1809;48.470;9.226;2022-07-29T14:58:55;7.10;;;6.60;;
3589;SDS011;1809;48.470;9.226;2022-07-29T15:01:21;5.27;;;4.90;;
3589;SDS011;1809;48.470;9.226;2022-07-29T15:03:46;6.90;;;6.37;;
3589;SDS011;1809;48.470;9.226;2022-07-29T15:06:11;7.03;;;6.53;;
3589;SDS011;1809;48.470;9.226;2022-07-29T15:08:37;7.47;;;6.77;;
3589;SDS011;1809;48.470;9.226;2022-07-29T15:11:02;5.77;;;5.27;;
3589;SDS011;1809;48.470;9.226;2022-07-29T15:13:27;9.00;;;6.60;;
3589;SDS011;1809;48.470;9.226;2022-07-29T15:15:53;6.37;;;6.07;;
3589;SDS011;1809;48.470;9.226;2022-07-29T15:18:18;5.83;;;5.47;;
3589;SDS011;1809;48.470;9.226;2022-07-29T15:20:43;7.70;;;6.00;;
3589;SDS011;1809;48.470;9.226;2022-07-29T15:23:12;11.60;;;6.63;;
3589;SDS011;1809;48.470;9.226;2022-07-29T15:25:38;6.73;;;6.20;;
3589;SDS011;1809;48.470;9.226;2022-07-29T15:28:04;6.53;;;6.13;;
3589;SDS011;1809;48.470;9.226;2022-07-29T15:30:32;7.67;;;6.00;;
3589;SDS011;1809;48.470;9.226;2022-07-29T15:32:58;7.37;;;6.67;;
3589;SDS011;1809;48.470;9.226;2022-07-29T15:35:23;10.17;;;7.40;;
3589;SDS011;1809;48.470;9.226;2022-07-29T15:37:49;6.80;;;6.30;;
3589;SDS011;1809;48.470;9.226;2022-07-29T15:40:14;7.30;;;6.70;;
3589;SDS011;1809;48.470;9.226;2022-07-29T15:42:40;7.20;;;6.43;;
3589;SDS011;1809;48.470;9.226;2022-07-29T15:45:05;7.53;;;6.10;;
3589;SDS011;1809;48.470;9.226;2022-07-29T15:47:31;7.00;;;6.40;;
3589;SDS011;1809;48.470;9.226;2022-07-29T15:49:57;7.90;;;7.10;;
3589;SDS011;1809;48.470;9.226;2022-07-29T15:52:22;10.43;;;6.37;;
3589;SDS011;1809;48.470;9.226;2022-07-29T15:54:47;7.47;;;6.70;;
3589;SDS011;1809;48.470;9.226;2022-07-29T15:57:13;7.77;;;7.00;;
3589;SDS011;1809;48.470;9.226;2022-07-29T15:59:38;6.83;;;6.30;;
3589;SDS011;1809;48.470;9.226;2022-07-29T16:02:04;6.97;;;5.60;;
3589;SDS011;1809;48.470;9.226;2022-07-29T16:04:30;6.37;;;5.97;;
3589;SDS011;1809;48.470;9.226;2022-07-29T16:06:56;6.17;;;5.77;;
3589;SDS011;1809;48.470;9.226;2022-07-29T16:09:22;5.63;;;5.23;;